sensor_id;sensor_type;location;lat;lon;timestamp;temperature;humidity
29431;DHT22;16404;49.902;10.074;2024-03-08T00:00:02;6.20;52.20
29431;DHT22;16404;49.902;10.074;2024-03-08T00:02:55;6.10;52.10
29431;DHT22;16404;49.902;10.074;2024-03-08T00:05:40;6.10;52.10
29431;DHT22;16404;49.902;10.074;2024-03-08T00:08:25;6.10;52.20
29431;DHT22;16404;49.902;10.074;2024-03-08T00:11:10;6.00;52.40
29431;DHT22;16404;49.902;10.074;2024-03-08T00:13:54;6.00;52.30
29431;DHT22;16404;49.902;10.074;2024-03-08T00:16:39;6.00;52.20
29431;DHT22;16404;49.902;10.074;2024-03-08T00:19:27;6.00;52.10
29431;DHT22;16404;49.902;10.074;2024-03-08T00:22:12;6.00;51.80
29431;DHT22;16404;49.902;10.074;2024-03-08T00:24:56;6.00;51.70
29431;DHT22;16404;49.902;10.074;2024-03-08T00:27:41;5.90;51.60
29431;DHT22;16404;49.902;10.074;2024-03-08T00:30:26;5.90;52.20
29431;DHT22;16404;49.902;10.074;2024-03-08T00:33:10;5.80;51.60
29431;DHT22;16404;49.902;10.074;2024-03-08T00:35:55;5.80;51.70
29431;DHT22;16404;49.902;10.074;2024-03-08T00:38:39;5.80;52.30
29431;DHT22;16404;49.902;10.074;2024-03-08T00:41:24;5.80;51.60
29431;DHT22;16404;49.902;10.074;2024-03-08T00:44:10;5.70;51.50
29431;DHT22;16404;49.902;10.074;2024-03-08T00:46:54;5.60;51.30
29431;DHT22;16404;49.902;10.074;2024-03-08T00:49:41;5.50;51.30
29431;DHT22;16404;49.902;10.074;2024-03-08T00:52:26;5.50;51.40
29431;DHT22;16404;49.902;10.074;2024-03-08T00:55:10;5.40;51.40
29431;DHT22;16404;49.902;10.074;2024-03-08T00:57:55;5.40;51.20
29431;DHT22;16404;49.902;10.074;2024-03-08T01:00:40;5.30;51.10
29431;DHT22;16404;49.902;10.074;2024-03-08T01:03:25;5.30;51.10
29431;DHT22;16404;49.902;10.074;2024-03-08T01:06:09;5.20;51.10
29431;DHT22;16404;49.902;10.074;2024-03-08T01:08:55;5.10;51.20
29431;DHT22;16404;49.902;10.074;2024-03-08T01:11:40;5.10;51.20
29431;DHT22;16404;49.902;10.074;2024-03-08T01:14:25;5.00;51.20
29431;DHT22;16404;49.902;10.074;2024-03-08T01:17:10;5.00;51.30
29431;DHT22;16404;49.902;10.074;2024-03-08T01:19:56;4.90;51.40
29431;DHT22;16404;49.902;10.074;2024-03-08T01:22:40;4.90;51.60
29431;DHT22;16404;49.902;10.074;2024-03-08T01:25:25;4.90;51.60
29431;DHT22;16404;49.902;10.074;2024-03-08T01:28:09;4.90;51.70
29431;DHT22;16404;49.902;10.074;2024-03-08T01:30:54;4.80;51.60
29431;DHT22;16404;49.902;10.074;2024-03-08T01:33:42;4.80;51.60
29431;DHT22;16404;49.902;10.074;2024-03-08T01:36:26;4.70;51.90
29431;DHT22;16404;49.902;10.074;2024-03-08T01:39:11;4.70;52.20
29431;DHT22;16404;49.902;10.074;2024-03-08T01:41:55;4.70;52.40
29431;DHT22;16404;49.902;10.074;2024-03-08T01:44:40;4.70;52.70
29431;DHT22;16404;49.902;10.074;2024-03-08T01:47:25;4.70;53.20
29431;DHT22;16404;49.902;10.074;2024-03-08T01:50:10;4.70;53.40
29431;DHT22;16404;49.902;10.074;2024-03-08T01:52:54;4.70;53.60
29431;DHT22;16404;49.902;10.074;2024-03-08T01:55:39;4.70;53.70
29431;DHT22;16404;49.902;10.074;2024-03-08T01:58:27;4.70;53.90
29431;DHT22;16404;49.902;10.074;2024-03-08T02:01:12;4.70;53.90
29431;DHT22;16404;49.902;10.074;2024-03-08T02:03:58;4.70;54.10
29431;DHT22;16404;49.902;10.074;2024-03-08T02:06:43;4.70;54.40
29431;DHT22;16404;49.902;10.074;2024-03-08T02:09:29;4.70;54.60
29431;DHT22;16404;49.902;10.074;2024-03-08T02:12:13;4.70;54.60
29431;DHT22;16404;49.902;10.074;2024-03-08T02:14:58;4.70;54.50
29431;DHT22;16404;49.902;10.074;2024-03-08T02:17:42;4.70;54.30
29431;DHT22;16404;49.902;10.074;2024-03-08T02:20:29;4.70;54.20
29431;DHT22;16404;49.902;10.074;2024-03-08T02:23:14;4.70;54.00
29431;DHT22;16404;49.902;10.074;2024-03-08T02:25:59;4.60;54.00
29431;DHT22;16404;49.902;10.074;2024-03-08T02:28:44;4.60;54.00
29431;DHT22;16404;49.902;10.074;2024-03-08T02:31:29;4.50;53.90
29431;DHT22;16404;49.902;10.074;2024-03-08T02:34:13;4.60;54.00
29431;DHT22;16404;49.902;10.074;2024-03-08T02:36:58;4.60;54.00
29431;DHT22;16404;49.902;10.074;2024-03-08T02:39:43;4.50;53.80
29431;DHT22;16404;49.902;10.074;2024-03-08T02:42:28;4.50;53.70
29431;DHT22;16404;49.902;10.074;2024-03-08T02:45:12;4.60;53.60
29431;DHT22;16404;49.902;10.074;2024-03-08T02:47:57;4.50;53.40
29431;DHT22;16404;49.902;10.074;2024-03-08T02:50:42;4.60;53.30
29431;DHT22;16404;49.902;10.074;2024-03-08T02:53:29;4.50;52.90
29431;DHT22;16404;49.902;10.074;2024-03-08T02:56:14;4.50;53.00
29431;DHT22;16404;49.902;10.074;2024-03-08T02:59:01;4.40;53.10
29431;DHT22;16404;49.902;10.074;2024-03-08T03:01:45;4.40;53.30
29431;DHT22;16404;49.902;10.074;2024-03-08T03:04:29;4.40;53.50
29431;DHT22;16404;49.902;10.074;2024-03-08T03:07:14;4.40;53.40
29431;DHT22;16404;49.902;10.074;2024-03-08T03:09:59;4.30;53.10
29431;DHT22;16404;49.902;10.074;2024-03-08T03:12:48;4.20;53.20
29431;DHT22;16404;49.902;10.074;2024-03-08T03:15:32;4.10;53.40
29431;DHT22;16404;49.902;10.074;2024-03-08T03:18:18;4.10;53.40
29431;DHT22;16404;49.902;10.074;2024-03-08T03:21:05;4.10;53.70
29431;DHT22;16404;49.902;10.074;2024-03-08T03:23:51;4.00;52.90
29431;DHT22;16404;49.902;10.074;2024-03-08T03:26:40;4.00;52.90
29431;DHT22;16404;49.902;10.074;2024-03-08T03:29:24;3.90;53.00
29431;DHT22;16404;49.902;10.074;2024-03-08T03:32:09;3.80;53.00
29431;DHT22;16404;49.902;10.074;2024-03-08T03:34:54;3.70;53.10
29431;DHT22;16404;49.902;10.074;2024-03-08T03:37:38;3.70;53.40
29431;DHT22;16404;49.902;10.074;2024-03-08T03:40:24;3.70;53.60
29431;DHT22;16404;49.902;10.074;2024-03-08T03:43:09;3.60;53.90
29431;DHT22;16404;49.902;10.074;2024-03-08T03:45:53;3.70;54.20
29431;DHT22;16404;49.902;10.074;2024-03-08T03:48:38;3.60;54.40
29431;DHT22;16404;49.902;10.074;2024-03-08T03:51:22;3.60;54.90
29431;DHT22;16404;49.902;10.074;2024-03-08T03:54:07;3.60;55.40
29431;DHT22;16404;49.902;10.074;2024-03-08T03:56:51;3.60;55.90
29431;DHT22;16404;49.902;10.074;2024-03-08T03:59:37;3.60;56.30
29431;DHT22;16404;49.902;10.074;2024-03-08T04:02:22;3.60;56.80
29431;DHT22;16404;49.902;10.074;2024-03-08T04:05:07;3.70;57.10
29431;DHT22;16404;49.902;10.074;2024-03-08T04:07:52;3.70;57.40
29431;DHT22;16404;49.902;10.074;2024-03-08T04:10:36;3.70;57.60
29431;DHT22;16404;49.902;10.074;2024-03-08T04:13:21;3.70;57.80
29431;DHT22;16404;49.902;10.074;2024-03-08T04:16:06;3.80;58.10
29431;DHT22;16404;49.902;10.074;2024-03-08T04:18:52;3.80;58.20
29431;DHT22;16404;49.902;10.074;2024-03-08T04:21:36;3.90;58.40
29431;DHT22;16404;49.902;10.074;2024-03-08T04:24:21;4.00;58.20
29431;DHT22;16404;49.902;10.074;2024-03-08T04:27:06;4.00;58.00
29431;DHT22;16404;49.902;10.074;2024-03-08T04:29:50;4.00;58.20
29431;DHT22;16404;49.902;10.074;2024-03-08T04:32:34;4.10;58.00
29431;DHT22;16404;49.902;10.074;2024-03-08T04:35:19;4.10;57.70
29431;DHT22;16404;49.902;10.074;2024-03-08T04:38:04;4.20;57.90
29431;DHT22;16404;49.902;10.074;2024-03-08T04:40:49;4.20;57.80
29431;DHT22;16404;49.902;10.074;2024-03-08T04:43:34;4.30;58.10
29431;DHT22;16404;49.902;10.074;2024-03-08T04:46:19;4.30;57.60
29431;DHT22;16404;49.902;10.074;2024-03-08T04:49:04;4.20;57.80
29431;DHT22;16404;49.902;10.074;2024-03-08T04:51:48;4.20;58.00
29431;DHT22;16404;49.902;10.074;2024-03-08T04:54:33;4.20;58.10
29431;DHT22;16404;49.902;10.074;2024-03-08T04:57:18;4.30;58.30
29431;DHT22;16404;49.902;10.074;2024-03-08T05:00:03;4.20;58.40
29431;DHT22;16404;49.902;10.074;2024-03-08T05:02:54;4.20;58.40
29431;DHT22;16404;49.902;10.074;2024-03-08T05:05:39;4.30;58.30
29431;DHT22;16404;49.902;10.074;2024-03-08T05:08:24;4.30;58.40
29431;DHT22;16404;49.902;10.074;2024-03-08T05:11:08;4.20;58.50
29431;DHT22;16404;49.902;10.074;2024-03-08T05:13:54;4.20;58.60
29431;DHT22;16404;49.902;10.074;2024-03-08T05:16:38;4.20;58.80
29431;DHT22;16404;49.902;10.074;2024-03-08T05:19:23;4.20;58.90
29431;DHT22;16404;49.902;10.074;2024-03-08T05:22:08;4.20;59.00
29431;DHT22;16404;49.902;10.074;2024-03-08T05:24:52;4.30;59.10
29431;DHT22;16404;49.902;10.074;2024-03-08T05:27:37;4.30;59.10
29431;DHT22;16404;49.902;10.074;2024-03-08T05:30:22;4.30;58.90
29431;DHT22;16404;49.902;10.074;2024-03-08T05:33:06;4.30;58.90
29431;DHT22;16404;49.902;10.074;2024-03-08T05:35:54;4.30;59.00
29431;DHT22;16404;49.902;10.074;2024-03-08T05:38:38;4.30;59.00
29431;DHT22;16404;49.902;10.074;2024-03-08T05:41:22;4.20;59.10
29431;DHT22;16404;49.902;10.074;2024-03-08T05:44:08;4.20;59.30
29431;DHT22;16404;49.902;10.074;2024-03-08T05:46:52;4.20;59.40
29431;DHT22;16404;49.902;10.074;2024-03-08T05:49:36;4.30;59.20
29431;DHT22;16404;49.902;10.074;2024-03-08T05:52:21;4.30;58.70
29431;DHT22;16404;49.902;10.074;2024-03-08T05:55:06;4.30;58.80
29431;DHT22;16404;49.902;10.074;2024-03-08T05:57:52;4.30;59.00
29431;DHT22;16404;49.902;10.074;2024-03-08T06:00:38;4.40;59.20
29431;DHT22;16404;49.902;10.074;2024-03-08T06:03:22;4.30;59.20
29431;DHT22;16404;49.902;10.074;2024-03-08T06:06:07;4.30;59.30
29431;DHT22;16404;49.902;10.074;2024-03-08T06:08:52;4.40;59.30
29431;DHT22;16404;49.902;10.074;2024-03-08T06:11:36;4.40;59.30
29431;DHT22;16404;49.902;10.074;2024-03-08T06:14:21;4.40;59.30
29431;DHT22;16404;49.902;10.074;2024-03-08T06:17:06;4.40;59.30
29431;DHT22;16404;49.902;10.074;2024-03-08T06:19:51;4.40;59.30
29431;DHT22;16404;49.902;10.074;2024-03-08T06:22:37;4.40;59.40
29431;DHT22;16404;49.902;10.074;2024-03-08T06:25:24;4.40;59.60
29431;DHT22;16404;49.902;10.074;2024-03-08T06:28:09;4.40;59.60
29431;DHT22;16404;49.902;10.074;2024-03-08T06:30:53;4.50;59.70
29431;DHT22;16404;49.902;10.074;2024-03-08T06:33:38;4.50;59.70
29431;DHT22;16404;49.902;10.074;2024-03-08T06:36:23;4.50;59.70
29431;DHT22;16404;49.902;10.074;2024-03-08T06:39:07;4.60;59.90
29431;DHT22;16404;49.902;10.074;2024-03-08T06:41:55;4.60;59.90
29431;DHT22;16404;49.902;10.074;2024-03-08T06:44:39;4.60;60.00
29431;DHT22;16404;49.902;10.074;2024-03-08T06:47:32;4.70;60.10
29431;DHT22;16404;49.902;10.074;2024-03-08T06:50:17;4.70;60.20
29431;DHT22;16404;49.902;10.074;2024-03-08T06:53:02;4.70;60.20
29431;DHT22;16404;49.902;10.074;2024-03-08T06:55:47;4.80;60.20
29431;DHT22;16404;49.902;10.074;2024-03-08T06:58:31;4.90;60.10
29431;DHT22;16404;49.902;10.074;2024-03-08T07:01:16;4.90;60.10
29431;DHT22;16404;49.902;10.074;2024-03-08T07:04:01;4.90;60.10
29431;DHT22;16404;49.902;10.074;2024-03-08T07:06:49;4.90;60.00
29431;DHT22;16404;49.902;10.074;2024-03-08T07:09:34;5.00;60.00
29431;DHT22;16404;49.902;10.074;2024-03-08T07:12:18;5.10;60.10
29431;DHT22;16404;49.902;10.074;2024-03-08T07:15:05;5.20;60.00
29431;DHT22;16404;49.902;10.074;2024-03-08T07:17:50;5.40;59.90
29431;DHT22;16404;49.902;10.074;2024-03-08T07:20:36;5.40;59.70
29431;DHT22;16404;49.902;10.074;2024-03-08T07:23:21;5.50;59.70
29431;DHT22;16404;49.902;10.074;2024-03-08T07:26:24;5.60;59.70
29431;DHT22;16404;49.902;10.074;2024-03-08T07:29:09;5.70;59.60
29431;DHT22;16404;49.902;10.074;2024-03-08T07:31:53;5.90;59.70
29431;DHT22;16404;49.902;10.074;2024-03-08T07:34:56;6.00;59.50
29431;DHT22;16404;49.902;10.074;2024-03-08T07:37:40;6.20;59.30
29431;DHT22;16404;49.902;10.074;2024-03-08T07:40:25;6.40;59.20
29431;DHT22;16404;49.902;10.074;2024-03-08T07:43:10;6.50;59.00
29431;DHT22;16404;49.902;10.074;2024-03-08T07:45:55;6.60;58.80
29431;DHT22;16404;49.902;10.074;2024-03-08T07:48:40;6.80;58.70
29431;DHT22;16404;49.902;10.074;2024-03-08T07:51:24;6.90;58.50
29431;DHT22;16404;49.902;10.074;2024-03-08T07:54:09;7.00;58.40
29431;DHT22;16404;49.902;10.074;2024-03-08T07:56:53;7.20;58.30
29431;DHT22;16404;49.902;10.074;2024-03-08T07:59:38;7.30;58.20
29431;DHT22;16404;49.902;10.074;2024-03-08T08:02:23;7.50;58.00
29431;DHT22;16404;49.902;10.074;2024-03-08T08:05:07;7.60;57.70
29431;DHT22;16404;49.902;10.074;2024-03-08T08:07:54;7.80;57.60
29431;DHT22;16404;49.902;10.074;2024-03-08T08:10:39;7.90;57.40
29431;DHT22;16404;49.902;10.074;2024-03-08T08:13:23;8.10;57.20
29431;DHT22;16404;49.902;10.074;2024-03-08T08:16:08;8.30;56.90
29431;DHT22;16404;49.902;10.074;2024-03-08T08:18:53;8.60;56.70
29431;DHT22;16404;49.902;10.074;2024-03-08T08:21:38;8.80;56.60
29431;DHT22;16404;49.902;10.074;2024-03-08T08:24:23;9.00;56.20
29431;DHT22;16404;49.902;10.074;2024-03-08T08:27:08;9.20;55.80
29431;DHT22;16404;49.902;10.074;2024-03-08T08:29:53;9.40;55.60
29431;DHT22;16404;49.902;10.074;2024-03-08T08:32:38;9.80;55.20
29431;DHT22;16404;49.902;10.074;2024-03-08T08:35:31;10.10;54.50
29431;DHT22;16404;49.902;10.074;2024-03-08T08:38:17;10.40;54.00
29431;DHT22;16404;49.902;10.074;2024-03-08T08:41:01;10.70;53.60
29431;DHT22;16404;49.902;10.074;2024-03-08T08:43:46;11.10;53.30
29431;DHT22;16404;49.902;10.074;2024-03-08T08:46:31;11.40;53.10
29431;DHT22;16404;49.902;10.074;2024-03-08T08:49:15;11.50;52.30
29431;DHT22;16404;49.902;10.074;2024-03-08T08:52:00;11.60;52.20
29431;DHT22;16404;49.902;10.074;2024-03-08T08:54:45;11.70;52.20
29431;DHT22;16404;49.902;10.074;2024-03-08T08:57:29;12.00;52.10
29431;DHT22;16404;49.902;10.074;2024-03-08T09:00:15;12.20;51.40
29431;DHT22;16404;49.902;10.074;2024-03-08T09:02:59;12.40;50.70
29431;DHT22;16404;49.902;10.074;2024-03-08T09:05:44;12.50;50.40
29431;DHT22;16404;49.902;10.074;2024-03-08T09:08:28;12.70;50.00
29431;DHT22;16404;49.902;10.074;2024-03-08T09:11:13;12.80;49.50
29431;DHT22;16404;49.902;10.074;2024-03-08T09:13:57;12.90;49.10
29431;DHT22;16404;49.902;10.074;2024-03-08T09:16:42;13.00;48.80
29431;DHT22;16404;49.902;10.074;2024-03-08T09:19:26;13.10;48.50
29431;DHT22;16404;49.902;10.074;2024-03-08T09:22:11;13.10;48.10
29431;DHT22;16404;49.902;10.074;2024-03-08T09:24:55;13.20;47.90
29431;DHT22;16404;49.902;10.074;2024-03-08T09:27:41;13.20;47.80
29431;DHT22;16404;49.902;10.074;2024-03-08T09:30:27;13.20;47.70
29431;DHT22;16404;49.902;10.074;2024-03-08T09:33:11;13.30;47.40
29431;DHT22;16404;49.902;10.074;2024-03-08T09:35:57;13.20;47.00
29431;DHT22;16404;49.902;10.074;2024-03-08T09:38:42;13.20;46.80
29431;DHT22;16404;49.902;10.074;2024-03-08T09:41:27;13.10;47.00
29431;DHT22;16404;49.902;10.074;2024-03-08T09:44:11;13.20;47.20
29431;DHT22;16404;49.902;10.074;2024-03-08T09:46:56;13.40;47.00
29431;DHT22;16404;49.902;10.074;2024-03-08T09:49:42;13.50;46.70
29431;DHT22;16404;49.902;10.074;2024-03-08T09:52:27;13.60;46.10
29431;DHT22;16404;49.902;10.074;2024-03-08T09:55:16;13.70;46.10
29431;DHT22;16404;49.902;10.074;2024-03-08T09:58:02;13.90;45.80
29431;DHT22;16404;49.902;10.074;2024-03-08T10:01:04;14.00;45.40
29431;DHT22;16404;49.902;10.074;2024-03-08T10:03:52;14.10;45.00
29431;DHT22;16404;49.902;10.074;2024-03-08T10:06:36;14.00;44.40
29431;DHT22;16404;49.902;10.074;2024-03-08T10:09:21;13.90;44.50
29431;DHT22;16404;49.902;10.074;2024-03-08T10:12:09;13.80;44.80
29431;DHT22;16404;49.902;10.074;2024-03-08T10:14:58;13.70;44.90
29431;DHT22;16404;49.902;10.074;2024-03-08T10:17:42;13.70;45.20
29431;DHT22;16404;49.902;10.074;2024-03-08T10:20:30;13.50;45.00
29431;DHT22;16404;49.902;10.074;2024-03-08T10:23:17;13.10;44.90
29431;DHT22;16404;49.902;10.074;2024-03-08T10:26:15;12.70;45.30
29431;DHT22;16404;49.902;10.074;2024-03-08T10:29:00;12.40;45.70
29431;DHT22;16404;49.902;10.074;2024-03-08T10:31:44;12.10;46.10
29431;DHT22;16404;49.902;10.074;2024-03-08T10:34:29;12.00;46.80
29431;DHT22;16404;49.902;10.074;2024-03-08T10:37:14;11.90;47.20
29431;DHT22;16404;49.902;10.074;2024-03-08T10:40:09;11.90;47.50
29431;DHT22;16404;49.902;10.074;2024-03-08T10:43:00;11.70;47.70
29431;DHT22;16404;49.902;10.074;2024-03-08T10:45:46;11.70;47.90
29431;DHT22;16404;49.902;10.074;2024-03-08T10:48:37;11.60;47.70
29431;DHT22;16404;49.902;10.074;2024-03-08T10:51:26;11.60;47.80
29431;DHT22;16404;49.902;10.074;2024-03-08T10:54:12;11.50;48.10
29431;DHT22;16404;49.902;10.074;2024-03-08T10:57:01;11.50;48.30
29431;DHT22;16404;49.902;10.074;2024-03-08T10:59:48;11.50;48.30
29431;DHT22;16404;49.902;10.074;2024-03-08T11:02:33;11.50;48.60
29431;DHT22;16404;49.902;10.074;2024-03-08T11:08:38;11.70;48.50
29431;DHT22;16404;49.902;10.074;2024-03-08T11:11:33;11.80;48.10
29431;DHT22;16404;49.902;10.074;2024-03-08T11:14:44;11.80;48.20
29431;DHT22;16404;49.902;10.074;2024-03-08T11:20:17;11.90;48.10
29431;DHT22;16404;49.902;10.074;2024-03-08T11:23:04;11.90;47.90
29431;DHT22;16404;49.902;10.074;2024-03-08T11:25:49;11.90;47.80
29431;DHT22;16404;49.902;10.074;2024-03-08T11:28:36;11.90;47.80
29431;DHT22;16404;49.902;10.074;2024-03-08T11:34:19;11.90;47.60
29431;DHT22;16404;49.902;10.074;2024-03-08T11:37:17;11.90;47.60
29431;DHT22;16404;49.902;10.074;2024-03-08T11:40:02;12.00;47.90
29431;DHT22;16404;49.902;10.074;2024-03-08T11:42:56;12.10;47.80
29431;DHT22;16404;49.902;10.074;2024-03-08T11:45:41;12.10;47.50
29431;DHT22;16404;49.902;10.074;2024-03-08T11:48:25;12.10;47.50
29431;DHT22;16404;49.902;10.074;2024-03-08T11:51:14;12.20;47.60
29431;DHT22;16404;49.902;10.074;2024-03-08T11:53:59;12.20;47.30
29431;DHT22;16404;49.902;10.074;2024-03-08T11:56:44;12.20;47.20
29431;DHT22;16404;49.902;10.074;2024-03-08T11:59:31;12.30;47.40
29431;DHT22;16404;49.902;10.074;2024-03-08T12:02:17;12.40;47.40
29431;DHT22;16404;49.902;10.074;2024-03-08T12:05:04;12.50;47.10
29431;DHT22;16404;49.902;10.074;2024-03-08T12:07:57;12.50;46.90
29431;DHT22;16404;49.902;10.074;2024-03-08T12:10:42;12.40;46.80
29431;DHT22;16404;49.902;10.074;2024-03-08T12:13:34;12.50;46.90
29431;DHT22;16404;49.902;10.074;2024-03-08T12:16:19;12.50;46.70
29431;DHT22;16404;49.902;10.074;2024-03-08T12:19:03;12.60;46.70
29431;DHT22;16404;49.902;10.074;2024-03-08T12:21:48;12.60;46.30
29431;DHT22;16404;49.902;10.074;2024-03-08T12:24:33;12.70;46.20
29431;DHT22;16404;49.902;10.074;2024-03-08T12:27:18;12.60;45.50
29431;DHT22;16404;49.902;10.074;2024-03-08T12:30:25;12.60;45.50
29431;DHT22;16404;49.902;10.074;2024-03-08T12:33:12;12.60;45.90
29431;DHT22;16404;49.902;10.074;2024-03-08T12:35:57;12.70;45.80
29431;DHT22;16404;49.902;10.074;2024-03-08T12:38:46;12.80;45.30
29431;DHT22;16404;49.902;10.074;2024-03-08T12:41:39;12.80;45.40
29431;DHT22;16404;49.902;10.074;2024-03-08T12:44:24;12.80;45.90
29431;DHT22;16404;49.902;10.074;2024-03-08T12:47:08;12.90;45.50
29431;DHT22;16404;49.902;10.074;2024-03-08T12:49:53;13.00;45.40
29431;DHT22;16404;49.902;10.074;2024-03-08T12:52:38;13.10;45.30
29431;DHT22;16404;49.902;10.074;2024-03-08T12:55:22;13.10;44.90
29431;DHT22;16404;49.902;10.074;2024-03-08T12:58:07;13.10;44.40
29431;DHT22;16404;49.902;10.074;2024-03-08T13:00:52;13.10;44.30
29431;DHT22;16404;49.902;10.074;2024-03-08T13:03:36;13.20;44.20
29431;DHT22;16404;49.902;10.074;2024-03-08T13:06:21;13.20;44.30
29431;DHT22;16404;49.902;10.074;2024-03-08T13:09:08;13.30;44.30
29431;DHT22;16404;49.902;10.074;2024-03-08T13:11:53;13.40;44.50
29431;DHT22;16404;49.902;10.074;2024-03-08T13:14:41;13.40;44.30
29431;DHT22;16404;49.902;10.074;2024-03-08T13:17:25;13.50;44.00
29431;DHT22;16404;49.902;10.074;2024-03-08T13:20:10;13.60;44.00
29431;DHT22;16404;49.902;10.074;2024-03-08T13:23:00;13.60;44.10
29431;DHT22;16404;49.902;10.074;2024-03-08T13:25:45;13.60;44.20
29431;DHT22;16404;49.902;10.074;2024-03-08T13:28:31;13.70;44.00
29431;DHT22;16404;49.902;10.074;2024-03-08T13:31:21;13.80;43.70
29431;DHT22;16404;49.902;10.074;2024-03-08T13:34:05;13.80;43.70
29431;DHT22;16404;49.902;10.074;2024-03-08T13:36:50;13.80;43.20
29431;DHT22;16404;49.902;10.074;2024-03-08T13:39:37;13.70;42.70
29431;DHT22;16404;49.902;10.074;2024-03-08T13:42:24;13.70;42.70
29431;DHT22;16404;49.902;10.074;2024-03-08T13:45:10;13.70;43.10
29431;DHT22;16404;49.902;10.074;2024-03-08T13:47:59;13.70;42.70
29431;DHT22;16404;49.902;10.074;2024-03-08T13:50:43;13.80;43.10
29431;DHT22;16404;49.902;10.074;2024-03-08T13:53:28;13.90;43.00
29431;DHT22;16404;49.902;10.074;2024-03-08T13:56:12;14.00;43.00
29431;DHT22;16404;49.902;10.074;2024-03-08T13:58:58;14.00;42.70
29431;DHT22;16404;49.902;10.074;2024-03-08T14:01:43;14.00;42.70
29431;DHT22;16404;49.902;10.074;2024-03-08T14:04:30;14.00;42.80
29431;DHT22;16404;49.902;10.074;2024-03-08T14:07:15;14.10;42.60
29431;DHT22;16404;49.902;10.074;2024-03-08T14:10:00;14.10;42.40
29431;DHT22;16404;49.902;10.074;2024-03-08T14:12:45;14.10;42.30
29431;DHT22;16404;49.902;10.074;2024-03-08T14:15:32;14.10;42.10
29431;DHT22;16404;49.902;10.074;2024-03-08T14:18:17;14.10;42.30
29431;DHT22;16404;49.902;10.074;2024-03-08T14:21:02;14.10;42.30
29431;DHT22;16404;49.902;10.074;2024-03-08T14:23:48;14.20;42.50
29431;DHT22;16404;49.902;10.074;2024-03-08T14:26:33;14.10;42.50
29431;DHT22;16404;49.902;10.074;2024-03-08T14:29:18;14.20;42.70
29431;DHT22;16404;49.902;10.074;2024-03-08T14:32:03;14.20;42.70
29431;DHT22;16404;49.902;10.074;2024-03-08T14:34:50;14.20;42.50
29431;DHT22;16404;49.902;10.074;2024-03-08T14:37:34;14.20;42.40
29431;DHT22;16404;49.902;10.074;2024-03-08T14:40:19;14.10;42.50
29431;DHT22;16404;49.902;10.074;2024-03-08T14:43:06;14.20;42.80
29431;DHT22;16404;49.902;10.074;2024-03-08T14:45:51;14.20;42.90
29431;DHT22;16404;49.902;10.074;2024-03-08T14:48:36;14.20;42.80
29431;DHT22;16404;49.902;10.074;2024-03-08T14:51:21;14.20;42.70
29431;DHT22;16404;49.902;10.074;2024-03-08T14:54:10;14.20;42.50
29431;DHT22;16404;49.902;10.074;2024-03-08T14:56:55;14.20;42.20
29431;DHT22;16404;49.902;10.074;2024-03-08T14:59:40;14.20;42.00
29431;DHT22;16404;49.902;10.074;2024-03-08T15:02:27;14.20;42.20
29431;DHT22;16404;49.902;10.074;2024-03-08T15:05:13;14.20;42.00
29431;DHT22;16404;49.902;10.074;2024-03-08T15:07:58;14.30;42.00
29431;DHT22;16404;49.902;10.074;2024-03-08T15:10:47;14.30;41.90
29431;DHT22;16404;49.902;10.074;2024-03-08T15:13:35;14.30;41.80
29431;DHT22;16404;49.902;10.074;2024-03-08T15:16:25;14.30;41.80
29431;DHT22;16404;49.902;10.074;2024-03-08T15:19:10;14.20;42.00
29431;DHT22;16404;49.902;10.074;2024-03-08T15:21:56;14.20;42.00
29431;DHT22;16404;49.902;10.074;2024-03-08T15:24:42;14.20;42.10
29431;DHT22;16404;49.902;10.074;2024-03-08T15:27:27;14.20;42.00
29431;DHT22;16404;49.902;10.074;2024-03-08T15:30:12;14.20;42.00
29431;DHT22;16404;49.902;10.074;2024-03-08T15:33:00;14.20;42.00
29431;DHT22;16404;49.902;10.074;2024-03-08T15:35:47;14.20;42.60
29431;DHT22;16404;49.902;10.074;2024-03-08T15:38:35;14.20;42.00
29431;DHT22;16404;49.902;10.074;2024-03-08T15:41:20;14.10;42.00
29431;DHT22;16404;49.902;10.074;2024-03-08T15:44:05;14.20;41.90
29431;DHT22;16404;49.902;10.074;2024-03-08T15:46:49;14.20;41.60
29431;DHT22;16404;49.902;10.074;2024-03-08T15:49:34;14.10;41.60
29431;DHT22;16404;49.902;10.074;2024-03-08T15:52:18;14.10;42.00
29431;DHT22;16404;49.902;10.074;2024-03-08T15:55:03;14.10;42.00
29431;DHT22;16404;49.902;10.074;2024-03-08T15:57:50;14.10;41.60
29431;DHT22;16404;49.902;10.074;2024-03-08T16:00:34;14.10;41.50
29431;DHT22;16404;49.902;10.074;2024-03-08T16:03:19;14.10;41.70
29431;DHT22;16404;49.902;10.074;2024-03-08T16:06:04;14.10;41.90
29431;DHT22;16404;49.902;10.074;2024-03-08T16:08:50;14.10;41.80
29431;DHT22;16404;49.902;10.074;2024-03-08T16:11:35;14.10;41.60
29431;DHT22;16404;49.902;10.074;2024-03-08T16:14:23;14.00;41.50
29431;DHT22;16404;49.902;10.074;2024-03-08T16:17:08;14.00;41.50
29431;DHT22;16404;49.902;10.074;2024-03-08T16:19:52;14.00;41.60
29431;DHT22;16404;49.902;10.074;2024-03-08T16:22:43;14.00;41.70
29431;DHT22;16404;49.902;10.074;2024-03-08T16:25:28;13.90;41.70
29431;DHT22;16404;49.902;10.074;2024-03-08T16:28:13;13.90;41.60
29431;DHT22;16404;49.902;10.074;2024-03-08T16:30:57;13.90;41.70
29431;DHT22;16404;49.902;10.074;2024-03-08T16:33:42;13.90;41.80
29431;DHT22;16404;49.902;10.074;2024-03-08T16:36:28;13.80;41.40
29431;DHT22;16404;49.902;10.074;2024-03-08T16:39:12;13.70;41.60
29431;DHT22;16404;49.902;10.074;2024-03-08T16:41:57;13.70;41.80
29431;DHT22;16404;49.902;10.074;2024-03-08T16:44:42;13.70;42.60
29431;DHT22;16404;49.902;10.074;2024-03-08T16:47:26;13.80;42.10
29431;DHT22;16404;49.902;10.074;2024-03-08T16:50:12;13.80;42.00
29431;DHT22;16404;49.902;10.074;2024-03-08T16:53:00;13.60;42.20
29431;DHT22;16404;49.902;10.074;2024-03-08T16:55:45;13.60;42.50
29431;DHT22;16404;49.902;10.074;2024-03-08T16:58:30;13.60;42.70
29431;DHT22;16404;49.902;10.074;2024-03-08T17:01:16;13.50;42.80
29431;DHT22;16404;49.902;10.074;2024-03-08T17:04:01;13.40;43.00
29431;DHT22;16404;49.902;10.074;2024-03-08T17:06:46;13.40;43.70
29431;DHT22;16404;49.902;10.074;2024-03-08T17:09:31;13.30;43.30
29431;DHT22;16404;49.902;10.074;2024-03-08T17:12:16;13.30;43.50
29431;DHT22;16404;49.902;10.074;2024-03-08T17:15:03;13.20;43.50
29431;DHT22;16404;49.902;10.074;2024-03-08T17:17:51;13.10;43.60
29431;DHT22;16404;49.902;10.074;2024-03-08T17:20:37;13.10;43.80
29431;DHT22;16404;49.902;10.074;2024-03-08T17:23:22;13.10;43.90
29431;DHT22;16404;49.902;10.074;2024-03-08T17:26:06;13.00;43.90